createdAt,value
2019-02-19T00:00:40.157Z,9.13
2019-02-19T00:12:15.018Z,9.17
2019-02-19T00:14:45.801Z,9.23
2019-02-19T00:17:16.516Z,8.40
2019-02-19T00:19:47.333Z,8.30
2019-02-19T00:22:19.555Z,7.80
2019-02-19T00:24:50.984Z,7.67
2019-02-19T00:27:58.903Z,7.80
2019-02-19T00:30:39.920Z,8.40
2019-02-19T00:33:29.319Z,8.30
2019-02-19T00:42:19.637Z,7.97
2019-02-19T00:48:11.630Z,7.97
2019-02-19T00:51:01.547Z,7.40
2019-02-19T00:53:32.469Z,7.13
2019-02-19T00:56:41.620Z,7.10
2019-02-19T00:59:12.058Z,7.07
2019-02-19T01:07:37.659Z,7.47
2019-02-19T01:10:46.912Z,6.60
2019-02-19T01:13:47.787Z,6.60
2019-02-19T01:16:37.135Z,7.23
2019-02-19T01:19:26.092Z,6.50
2019-02-19T01:21:56.595Z,6.50
2019-02-19T01:36:55.728Z,5.40
2019-02-19T01:39:26.678Z,5.17
2019-02-19T01:48:03.110Z,6.70
2019-02-19T01:51:12.178Z,6.90
2019-02-19T01:57:08.178Z,6.53
2019-02-19T01:59:38.706Z,6.63
2019-02-19T02:08:39.755Z,6.50
2019-02-19T02:11:10.622Z,6.60
2019-02-19T02:17:01.637Z,6.60
2019-02-19T02:19:32.864Z,6.87
2019-02-19T02:22:03.263Z,6.53
2019-02-19T02:24:52.450Z,6.97
2019-02-19T02:31:02.061Z,6.40
2019-02-19T02:34:02.792Z,6.30
2019-02-19T02:36:33.426Z,6.77
2019-02-19T02:45:06.038Z,4.73
2019-02-19T02:53:59.087Z,4.43
2019-02-19T02:57:08.207Z,4.77
2019-02-19T03:02:58.536Z,4.47
2019-02-19T03:05:50.215Z,4.37
2019-02-19T03:08:32.166Z,4.00
2019-02-19T03:11:40.565Z,4.13
2019-02-19T03:14:30.049Z,4.67
2019-02-19T03:17:19.146Z,4.00
2019-02-19T03:20:28.483Z,4.93
2019-02-19T03:23:21.420Z,4.60
2019-02-19T03:26:30.875Z,4.10
2019-02-19T03:29:21.278Z,4.03
2019-02-19T03:31:51.573Z,3.93
2019-02-19T03:35:00.939Z,4.03
2019-02-19T03:37:33.139Z,3.40
2019-02-19T03:40:14.824Z,3.73
2019-02-19T03:45:23.927Z,4.10
2019-02-19T03:48:13.110Z,3.30
2019-02-19T03:51:02.190Z,3.50
2019-02-19T03:53:30.242Z,3.30
2019-02-19T03:56:00.764Z,4.00
2019-02-19T04:05:20.544Z,3.73
2019-02-19T04:08:29.690Z,3.30
2019-02-19T04:11:20.217Z,3.77
2019-02-19T04:16:29.877Z,3.70
2019-02-19T04:21:50.617Z,3.40
2019-02-19T04:24:41.398Z,3.40
2019-02-19T04:27:11.931Z,3.67
2019-02-19T04:29:42.353Z,3.27
2019-02-19T04:38:45.683Z,3.80
2019-02-19T04:41:15.927Z,3.33
2019-02-19T04:44:05.056Z,3.50
2019-02-19T04:46:35.576Z,3.20
2019-02-19T04:49:06.815Z,3.53
2019-02-19T04:51:47.319Z,3.80
2019-02-19T04:54:47.947Z,3.53
2019-02-19T05:00:08.587Z,3.83
2019-02-19T05:03:00.589Z,4.43
2019-02-19T05:05:33.076Z,3.43
2019-02-19T05:08:03.225Z,3.63
2019-02-19T05:16:11.645Z,3.70
2019-02-19T05:24:51.622Z,3.70
2019-02-19T05:28:00.949Z,3.43
2019-02-19T05:30:43.111Z,3.70
2019-02-19T05:38:53.899Z,3.70
2019-02-19T05:50:44.258Z,3.67
2019-02-19T05:57:15.385Z,4.00
2019-02-19T05:59:45.813Z,3.80
2019-02-19T06:02:16.053Z,3.90
2019-02-19T06:04:46.333Z,3.77
2019-02-19T06:07:16.740Z,3.70
2019-02-19T06:10:25.850Z,3.20
2019-02-19T06:12:56.511Z,3.83
2019-02-19T06:15:26.897Z,4.57
2019-02-19T06:21:17.874Z,3.50
2019-02-19T06:27:28.033Z,4.17
2019-02-19T06:29:58.692Z,3.77
2019-02-19T06:32:49.307Z,4.23
2019-02-19T06:35:38.364Z,4.23
2019-02-19T06:38:28.926Z,4.10
2019-02-19T06:44:45.270Z,4.80
2019-02-19T06:47:26.529Z,4.40
2019-02-19T06:50:16.956Z,4.67
2019-02-19T06:53:07.363Z,4.60
2019-02-19T06:59:03.596Z,4.10
2019-02-19T07:09:59.717Z,4.10
2019-02-19T07:18:25.007Z,4.43
2019-02-19T07:20:55.799Z,4.50
2019-02-19T07:23:26.457Z,4.53
2019-02-19T07:26:18.513Z,5.17
2019-02-19T07:28:48.971Z,5.27
2019-02-19T07:34:46.772Z,5.33
2019-02-19T07:37:36.002Z,5.57
2019-02-19T07:40:45.204Z,5.30
2019-02-19T07:43:15.765Z,4.97
2019-02-19T07:59:32.834Z,4.83
2019-02-19T08:02:28.028Z,4.57
2019-02-19T08:04:58.523Z,4.90
2019-02-19T08:07:29.440Z,5.43
2019-02-19T08:13:04.441Z,5.30
2019-02-19T08:15:45.182Z,5.37
2019-02-19T08:18:27.399Z,5.10
2019-02-19T08:21:36.559Z,5.17
2019-02-19T08:24:26.890Z,5.53
2019-02-19T08:30:35.350Z,5.43
2019-02-19T08:36:27.566Z,4.70
2019-02-19T08:42:15.722Z,4.83
2019-02-19T08:50:48.991Z,5.60
2019-02-19T08:53:19.294Z,5.40
2019-02-19T08:55:51.080Z,5.50
2019-02-19T08:59:00.175Z,5.20
2019-02-19T09:01:32.910Z,5.57
2019-02-19T09:04:04.126Z,5.73
2019-02-19T09:06:35.808Z,4.83
2019-02-19T09:09:07.829Z,5.50
2019-02-19T09:11:39.183Z,5.90
2019-02-19T09:14:29.854Z,5.10
2019-02-19T09:17:22.921Z,5.43
2019-02-19T09:20:14.978Z,6.07
2019-02-19T09:22:47.154Z,5.60
2019-02-19T09:25:17.656Z,6.27
2019-02-19T09:27:48.163Z,5.23
2019-02-19T09:30:18.639Z,6.50
2019-02-19T09:32:49.540Z,5.37
2019-02-19T09:41:40.805Z,5.10
2019-02-19T09:47:11.588Z,6.23
2019-02-19T09:52:41.342Z,5.90
2019-02-19T09:55:50.904Z,6.10
2019-02-19T09:58:40.406Z,6.20
2019-02-19T10:01:31.385Z,6.90
2019-02-19T10:04:02.044Z,6.40
2019-02-19T10:06:34.517Z,6.90
2019-02-19T10:09:07.210Z,6.40
2019-02-19T10:11:37.653Z,6.80
2019-02-19T10:14:08.741Z,6.73
2019-02-19T10:16:41.716Z,6.03
2019-02-19T10:22:14.099Z,6.90
2019-02-19T10:24:47.402Z,7.63
2019-02-19T10:27:18.383Z,7.33
2019-02-19T10:29:49.230Z,7.10
2019-02-19T10:32:20.122Z,7.90
2019-02-19T10:35:11.491Z,7.30
2019-02-19T10:41:10.606Z,7.90
2019-02-19T10:43:42.663Z,7.27
2019-02-19T10:46:23.704Z,7.60
2019-02-19T10:48:56.273Z,7.97
2019-02-19T10:51:45.570Z,8.13
2019-02-19T10:54:46.537Z,7.63
2019-02-19T10:57:17.297Z,7.33
2019-02-19T10:59:48.084Z,8.20
2019-02-19T11:02:18.940Z,7.10
2019-02-19T11:04:50.200Z,7.73
2019-02-19T11:07:22.179Z,6.83
2019-02-19T11:09:52.874Z,7.70
2019-02-19T11:12:23.686Z,7.23
2019-02-19T11:14:55.294Z,7.23
2019-02-19T11:20:02.832Z,6.67
2019-02-19T11:22:36.575Z,6.97
2019-02-19T11:25:12.140Z,8.10
2019-02-19T11:27:44.947Z,6.50
2019-02-19T11:30:17.143Z,6.33
2019-02-19T11:32:48.065Z,6.57
2019-02-19T11:35:19.173Z,6.97
2019-02-19T11:37:50.348Z,6.47
2019-02-19T11:40:21.237Z,6.90
2019-02-19T11:42:51.946Z,6.13
2019-02-19T11:45:22.245Z,6.40
2019-02-19T11:47:52.917Z,6.50
2019-02-19T11:50:23.830Z,6.77
2019-02-19T11:52:55.577Z,5.83
2019-02-19T11:55:28.937Z,5.43
2019-02-19T11:57:59.978Z,6.20
2019-02-19T12:00:36.759Z,6.03
2019-02-19T12:03:46.072Z,6.10
2019-02-19T12:06:37.460Z,6.20
2019-02-19T12:09:47.173Z,6.57
2019-02-19T12:12:18.454Z,5.90
2019-02-19T12:14:50.950Z,5.33
2019-02-19T12:22:44.286Z,7.53
2019-02-19T12:25:16.170Z,10.70
2019-02-19T12:27:47.120Z,6.20
2019-02-19T12:30:20.552Z,5.60
2019-02-19T12:32:52.487Z,5.83
2019-02-19T12:35:25.909Z,5.43
2019-02-19T12:37:58.207Z,5.00
2019-02-19T12:43:50.950Z,5.07
2019-02-19T12:46:21.331Z,5.10
2019-02-19T12:49:12.404Z,4.73
2019-02-19T12:51:43.974Z,4.50
2019-02-19T12:54:14.509Z,4.63
2019-02-19T12:56:44.736Z,4.40
2019-02-19T12:59:15.260Z,4.30
2019-02-19T13:01:45.875Z,5.17
2019-02-19T13:04:16.366Z,4.80
2019-02-19T13:06:47.788Z,4.70
2019-02-19T13:09:19.655Z,5.00
2019-02-19T13:11:50.044Z,5.87
2019-02-19T13:14:20.879Z,5.17
2019-02-19T13:16:51.961Z,5.90
2019-02-19T13:19:22.883Z,5.30
2019-02-19T13:21:56.950Z,5.90
2019-02-19T13:24:32.147Z,6.10
2019-02-19T13:27:03.385Z,5.10
2019-02-19T13:32:56.187Z,5.50
2019-02-19T13:35:26.902Z,5.73
2019-02-19T13:37:57.688Z,4.87
2019-02-19T13:40:28.380Z,4.47
2019-02-19T13:42:58.748Z,3.93
2019-02-19T13:45:29.127Z,5.00
2019-02-19T13:48:05.863Z,5.00
2019-02-19T13:50:32.639Z,5.60
2019-02-19T13:53:12.853Z,4.27
2019-02-19T13:55:46.858Z,4.40
2019-02-19T13:58:17.857Z,4.17
2019-02-19T14:06:59.903Z,4.60
2019-02-19T14:09:30.463Z,3.70
2019-02-19T14:12:01.601Z,4.13
2019-02-19T14:14:40.536Z,5.13
2019-02-19T14:17:15.828Z,4.00
2019-02-19T14:20:00.608Z,4.50
2019-02-19T14:23:08.718Z,4.23
2019-02-19T14:25:59.324Z,4.23
2019-02-19T14:32:34.066Z,4.13
2019-02-19T14:35:26.752Z,4.20
2019-02-19T14:38:17.075Z,4.97
2019-02-19T14:41:25.000Z,4.73
2019-02-19T14:44:20.822Z,5.10
2019-02-19T14:47:19.862Z,4.27
2019-02-19T14:50:12.379Z,4.67
2019-02-19T14:53:23.516Z,4.30
2019-02-19T14:56:24.947Z,4.67
2019-02-19T14:59:43.091Z,5.03
2019-02-19T15:02:33.541Z,5.47
2019-02-19T15:05:23.502Z,5.00
2019-02-19T15:11:20.144Z,5.73
2019-02-19T15:14:14.485Z,5.10
2019-02-19T15:16:56.528Z,5.43
2019-02-19T15:19:43.874Z,4.67
2019-02-19T15:22:23.590Z,5.47
2019-02-19T15:25:07.336Z,5.43
2019-02-19T15:27:59.661Z,5.10
2019-02-19T15:30:48.910Z,4.80
2019-02-19T15:33:47.709Z,3.73
2019-02-19T15:36:52.819Z,4.80
2019-02-19T15:40:02.025Z,5.10
2019-02-19T15:43:10.690Z,5.57
2019-02-19T15:46:07.706Z,4.90
2019-02-19T15:49:07.561Z,5.47
2019-02-19T15:52:06.022Z,5.00
2019-02-19T15:54:49.049Z,5.13
2019-02-19T15:57:46.084Z,4.80
2019-02-19T16:00:28.495Z,5.13
2019-02-19T16:03:18.033Z,5.60
2019-02-19T16:09:07.271Z,5.60
2019-02-19T16:24:20.092Z,5.77
2019-02-19T16:30:44.710Z,5.07
2019-02-19T16:33:52.577Z,5.80
2019-02-19T16:37:00.419Z,4.53
2019-02-19T16:48:40.354Z,5.93
2019-02-19T16:51:49.535Z,6.53
2019-02-19T16:54:59.787Z,5.53
2019-02-19T16:57:56.761Z,5.87
2019-02-19T17:00:52.067Z,6.80
2019-02-19T17:03:54.091Z,6.30
2019-02-19T17:06:54.816Z,6.23
2019-02-19T17:09:43.042Z,6.20
2019-02-19T17:12:53.338Z,6.10
2019-02-19T17:15:54.510Z,6.47
2019-02-19T17:22:04.445Z,6.57
2019-02-19T17:25:12.769Z,5.97
2019-02-19T17:28:22.502Z,6.83
2019-02-19T17:37:03.848Z,6.40
2019-02-19T17:39:51.509Z,6.00
2019-02-19T17:45:38.607Z,5.77
2019-02-19T17:52:04.229Z,6.30
2019-02-19T18:01:19.402Z,6.30
2019-02-19T18:06:56.250Z,6.10
2019-02-19T18:09:40.276Z,6.33
2019-02-19T18:12:28.274Z,6.80
2019-02-19T18:21:21.695Z,5.93
2019-02-19T18:23:52.326Z,6.73
2019-02-19T18:26:25.639Z,7.00
2019-02-19T18:28:56.956Z,7.17
2019-02-19T18:31:28.793Z,7.17
2019-02-19T18:34:00.695Z,7.57
2019-02-19T18:36:31.261Z,6.77
2019-02-19T18:39:20.779Z,6.53
2019-02-19T18:41:54.962Z,6.70
2019-02-19T18:44:35.275Z,6.73
2019-02-19T18:50:26.167Z,6.77
2019-02-19T19:04:45.243Z,5.93
2019-02-19T19:10:35.386Z,6.50
2019-02-19T19:19:08.389Z,6.37
2019-02-19T19:24:39.089Z,7.10
2019-02-19T19:27:13.733Z,6.90
2019-02-19T19:29:45.347Z,7.70
2019-02-19T19:32:16.085Z,7.40
2019-02-19T19:34:47.017Z,7.30
2019-02-19T19:37:17.690Z,8.03
2019-02-19T19:39:48.907Z,7.80
2019-02-19T19:42:20.782Z,7.30
2019-02-19T19:44:51.892Z,8.00
2019-02-19T19:47:52.345Z,7.27
2019-02-19T19:50:22.829Z,7.00
2019-02-19T19:52:53.184Z,8.60
2019-02-19T19:58:24.719Z,7.23
2019-02-19T20:04:11.793Z,8.07
2019-02-19T20:06:52.608Z,7.97
2019-02-19T20:09:23.201Z,7.60
2019-02-19T20:14:53.263Z,7.80
2019-02-19T20:20:43.686Z,8.40
2019-02-19T20:23:14.080Z,8.37
2019-02-19T20:32:20.853Z,7.90
2019-02-19T20:34:51.650Z,8.00
2019-02-19T20:37:22.579Z,7.30
2019-02-19T20:39:54.070Z,7.20
2019-02-19T20:42:24.562Z,8.60
2019-02-19T20:44:54.933Z,7.20
2019-02-19T20:47:26.611Z,8.70
2019-02-19T20:49:57.016Z,8.80
2019-02-19T20:52:27.453Z,8.20
2019-02-19T20:54:58.616Z,7.53
2019-02-19T20:57:33.121Z,7.60
2019-02-19T21:00:07.432Z,8.50
2019-02-19T21:02:37.997Z,7.60
2019-02-19T21:05:09.377Z,6.83
2019-02-19T21:07:39.915Z,8.30
2019-02-19T21:10:15.454Z,7.57
2019-02-19T21:13:04.826Z,7.13
2019-02-19T21:15:35.408Z,8.20
2019-02-19T21:18:05.830Z,7.57
2019-02-19T21:20:36.466Z,8.10
2019-02-19T21:23:06.793Z,7.67
2019-02-19T21:26:15.871Z,7.30
2019-02-19T21:28:46.277Z,7.53
2019-02-19T21:31:35.617Z,7.23
2019-02-19T21:34:06.406Z,8.13
2019-02-19T21:36:37.068Z,7.53
2019-02-19T21:39:08.008Z,6.73
2019-02-19T21:44:54.484Z,7.90
2019-02-19T21:50:26.561Z,6.20
2019-02-19T21:52:56.964Z,6.70
2019-02-19T21:55:27.415Z,6.47
2019-02-19T21:57:59.699Z,5.90
2019-02-19T22:00:30.659Z,5.77
2019-02-19T22:03:20.011Z,7.60
2019-02-19T22:05:50.418Z,7.00
2019-02-19T22:08:23.616Z,7.07
2019-02-19T22:14:12.119Z,6.57
2019-02-19T22:16:44.480Z,5.93
2019-02-19T22:19:33.580Z,6.73
2019-02-19T22:25:05.490Z,5.80
2019-02-19T22:27:36.209Z,6.70
2019-02-19T22:30:25.669Z,5.90
2019-02-19T22:33:35.065Z,6.07
2019-02-19T22:39:25.559Z,6.10
2019-02-19T22:45:14.277Z,5.40
2019-02-19T22:47:53.011Z,5.70
2019-02-19T22:50:17.027Z,5.77
2019-02-19T22:52:47.875Z,5.60
2019-02-19T22:55:37.084Z,5.70
2019-02-19T22:58:07.622Z,5.60
2019-02-19T23:01:04.397Z,5.60
2019-02-19T23:03:53.539Z,5.23
2019-02-19T23:07:02.710Z,5.13
2019-02-19T23:10:10.987Z,6.20
2019-02-19T23:16:01.654Z,5.13
2019-02-19T23:18:45.551Z,5.90
2019-02-19T23:24:44.672Z,5.30
2019-02-19T23:30:47.628Z,4.87
2019-02-19T23:41:57.636Z,5.40
2019-02-19T23:44:46.780Z,5.10
2019-02-19T23:47:46.966Z,5.00
2019-02-19T23:50:17.403Z,5.00
2019-02-19T23:53:06.412Z,5.77
2019-02-19T23:56:07.180Z,5.03
2019-02-19T23:59:07.830Z,5.30
